sensor_id;sensor_type;location;lat;lon;timestamp;P1;durP1;ratioP1;P2;durP2;ratioP2
46339;SDS011;47273;49.274;8.708;2022-10-28T03:30:44;30.35;;;27.25;;
46339;SDS011;47273;49.274;8.708;2022-10-28T03:33:10;31.95;;;28.08;;
46339;SDS011;47273;49.274;8.708;2022-10-28T03:35:36;31.15;;;27.85;;
46339;SDS011;47273;49.274;8.708;2022-10-28T03:38:01;31.38;;;28.08;;
46339;SDS011;47273;49.274;8.708;2022-10-28T03:40:27;29.65;;;26.75;;
46339;SDS011;47273;49.274;8.708;2022-10-28T03:42:53;29.48;;;26.60;;
46339;SDS011;47273;49.274;8.708;2022-10-28T03:45:18;28.70;;;25.70;;
46339;SDS011;47273;49.274;8.708;2022-10-28T03:47:44;33.05;;;26.48;;
46339;SDS011;47273;49.274;8.708;2022-10-28T03:50:10;30.83;;;26.58;;
46339;SDS011;47273;49.274;8.708;2022-10-28T03:52:35;29.90;;;25.92;;
46339;SDS011;47273;49.274;8.708;2022-10-28T03:55:01;29.13;;;26.13;;
46339;SDS011;47273;49.274;8.708;2022-10-28T03:57:31;29.55;;;25.98;;
46339;SDS011;47273;49.274;8.708;2022-10-28T03:59:57;29.05;;;26.25;;
46339;SDS011;47273;49.274;8.708;2022-10-28T04:02:23;30.02;;;26.75;;
46339;SDS011;47273;49.274;8.708;2022-10-28T04:04:50;40.33;;;26.52;;
46339;SDS011;47273;49.274;8.708;2022-10-28T04:07:16;30.35;;;27.08;;
46339;SDS011;47273;49.274;8.708;2022-10-28T04:09:41;30.73;;;27.52;;
46339;SDS011;47273;49.274;8.708;2022-10-28T04:12:08;31.00;;;26.83;;
46339;SDS011;47273;49.274;8.708;2022-10-28T04:14:35;33.13;;;30.23;;
46339;SDS011;47273;49.274;8.708;2022-10-28T04:17:00;31.83;;;28.60;;
46339;SDS011;47273;49.274;8.708;2022-10-28T04:19:26;31.20;;;28.25;;
46339;SDS011;47273;49.274;8.708;2022-10-28T04:21:52;31.27;;;28.13;;
46339;SDS011;47273;49.274;8.708;2022-10-28T04:24:17;31.20;;;27.95;;
46339;SDS011;47273;49.274;8.708;2022-10-28T04:26:43;31.75;;;28.20;;
46339;SDS011;47273;49.274;8.708;2022-10-28T04:29:08;31.08;;;27.88;;
46339;SDS011;47273;49.274;8.708;2022-10-28T04:31:34;29.90;;;26.65;;
46339;SDS011;47273;49.274;8.708;2022-10-28T04:34:00;29.55;;;26.40;;
46339;SDS011;47273;49.274;8.708;2022-10-28T04:36:25;30.05;;;27.13;;
46339;SDS011;47273;49.274;8.708;2022-10-28T04:38:51;29.65;;;26.65;;
46339;SDS011;47273;49.274;8.708;2022-10-28T04:41:17;29.65;;;26.75;;
46339;SDS011;47273;49.274;8.708;2022-10-28T04:43:42;28.67;;;25.90;;
46339;SDS011;47273;49.274;8.708;2022-10-28T04:46:08;29.63;;;26.60;;
46339;SDS011;47273;49.274;8.708;2022-10-28T04:48:34;30.45;;;27.20;;
46339;SDS011;47273;49.274;8.708;2022-10-28T04:51:00;30.33;;;27.27;;
46339;SDS011;47273;49.274;8.708;2022-10-28T04:53:26;30.17;;;26.95;;
46339;SDS011;47273;49.274;8.708;2022-10-28T04:55:56;29.23;;;26.27;;
46339;SDS011;47273;49.274;8.708;2022-10-28T04:58:22;30.10;;;27.00;;
46339;SDS011;47273;49.274;8.708;2022-10-28T05:00:48;36.13;;;27.95;;
46339;SDS011;47273;49.274;8.708;2022-10-28T05:03:14;31.13;;;27.67;;
46339;SDS011;47273;49.274;8.708;2022-10-28T05:05:40;31.92;;;28.80;;
46339;SDS011;47273;49.274;8.708;2022-10-28T05:08:06;30.52;;;27.75;;
46339;SDS011;47273;49.274;8.708;2022-10-28T05:10:31;35.20;;;26.98;;
46339;SDS011;47273;49.274;8.708;2022-10-28T05:12:59;30.45;;;27.30;;
46339;SDS011;47273;49.274;8.708;2022-10-28T05:15:25;31.05;;;27.70;;
46339;SDS011;47273;49.274;8.708;2022-10-28T05:17:51;32.40;;;27.90;;
46339;SDS011;47273;49.274;8.708;2022-10-28T05:20:17;31.98;;;28.58;;
46339;SDS011;47273;49.274;8.708;2022-10-28T05:22:47;30.85;;;27.55;;
46339;SDS011;47273;49.274;8.708;2022-10-28T05:25:16;29.85;;;26.95;;
46339;SDS011;47273;49.274;8.708;2022-10-28T05:27:42;31.38;;;27.13;;
46339;SDS011;47273;49.274;8.708;2022-10-28T05:30:08;30.50;;;27.40;;
46339;SDS011;47273;49.274;8.708;2022-10-28T05:32:35;31.98;;;27.35;;
46339;SDS011;47273;49.274;8.708;2022-10-28T05:35:01;33.88;;;26.38;;
46339;SDS011;47273;49.274;8.708;2022-10-28T05:37:27;30.45;;;27.13;;
46339;SDS011;47273;49.274;8.708;2022-10-28T05:39:52;29.23;;;26.10;;
46339;SDS011;47273;49.274;8.708;2022-10-28T05:42:21;29.27;;;26.20;;
46339;SDS011;47273;49.274;8.708;2022-10-28T05:44:46;29.08;;;26.20;;
46339;SDS011;47273;49.274;8.708;2022-10-28T05:47:12;28.85;;;26.08;;
46339;SDS011;47273;49.274;8.708;2022-10-28T05:49:38;29.00;;;26.38;;
46339;SDS011;47273;49.274;8.708;2022-10-28T05:52:03;31.10;;;28.05;;
46339;SDS011;47273;49.274;8.708;2022-10-28T05:54:29;31.50;;;28.00;;
46339;SDS011;47273;49.274;8.708;2022-10-28T05:56:55;31.13;;;27.92;;
46339;SDS011;47273;49.274;8.708;2022-10-28T05:59:20;29.50;;;26.67;;
46339;SDS011;47273;49.274;8.708;2022-10-28T06:01:46;29.80;;;27.00;;
46339;SDS011;47273;49.274;8.708;2022-10-28T06:04:12;30.50;;;27.40;;
46339;SDS011;47273;49.274;8.708;2022-10-28T06:06:37;29.55;;;26.48;;
46339;SDS011;47273;49.274;8.708;2022-10-28T06:09:03;30.92;;;27.88;;
46339;SDS011;47273;49.274;8.708;2022-10-28T06:11:29;46.80;;;32.67;;
46339;SDS011;47273;49.274;8.708;2022-10-28T06:13:54;51.80;;;34.88;;
46339;SDS011;47273;49.274;8.708;2022-10-28T06:16:20;47.08;;;33.50;;
46339;SDS011;47273;49.274;8.708;2022-10-28T06:18:46;38.25;;;31.08;;
46339;SDS011;47273;49.274;8.708;2022-10-28T06:21:11;30.27;;;27.38;;
46339;SDS011;47273;49.274;8.708;2022-10-28T06:23:37;29.67;;;26.77;;
46339;SDS011;47273;49.274;8.708;2022-10-28T06:26:03;32.25;;;28.42;;
46339;SDS011;47273;49.274;8.708;2022-10-28T06:28:29;31.27;;;28.25;;
46339;SDS011;47273;49.274;8.708;2022-10-28T06:31:02;30.00;;;27.00;;
46339;SDS011;47273;49.274;8.708;2022-10-28T06:33:29;30.70;;;27.67;;
46339;SDS011;47273;49.274;8.708;2022-10-28T06:35:56;30.00;;;27.30;;
46339;SDS011;47273;49.274;8.708;2022-10-28T06:38:23;30.17;;;26.98;;
46339;SDS011;47273;49.274;8.708;2022-10-28T06:40:49;31.58;;;26.83;;
46339;SDS011;47273;49.274;8.708;2022-10-28T06:43:15;31.27;;;26.92;;
46339;SDS011;47273;49.274;8.708;2022-10-28T06:45:41;28.33;;;25.45;;
46339;SDS011;47273;49.274;8.708;2022-10-28T06:48:09;28.48;;;25.98;;
46339;SDS011;47273;49.274;8.708;2022-10-28T06:50:35;28.77;;;26.17;;
46339;SDS011;47273;49.274;8.708;2022-10-28T06:53:01;29.98;;;27.25;;
46339;SDS011;47273;49.274;8.708;2022-10-28T06:55:27;31.75;;;28.60;;
46339;SDS011;47273;49.274;8.708;2022-10-28T06:57:53;30.85;;;27.85;;
46339;SDS011;47273;49.274;8.708;2022-10-28T07:00:22;31.73;;;28.08;;
46339;SDS011;47273;49.274;8.708;2022-10-28T07:02:51;29.92;;;27.00;;
46339;SDS011;47273;49.274;8.708;2022-10-28T07:05:17;30.45;;;27.15;;
46339;SDS011;47273;49.274;8.708;2022-10-28T07:07:42;31.13;;;27.95;;
46339;SDS011;47273;49.274;8.708;2022-10-28T07:10:08;29.33;;;26.33;;
46339;SDS011;47273;49.274;8.708;2022-10-28T07:12:34;29.58;;;26.65;;
46339;SDS011;47273;49.274;8.708;2022-10-28T07:14:59;30.23;;;27.08;;
46339;SDS011;47273;49.274;8.708;2022-10-28T07:17:25;29.90;;;26.73;;
46339;SDS011;47273;49.274;8.708;2022-10-28T07:19:50;29.05;;;26.48;;
46339;SDS011;47273;49.274;8.708;2022-10-28T07:22:16;29.02;;;26.33;;
46339;SDS011;47273;49.274;8.708;2022-10-28T07:24:44;33.30;;;27.58;;
46339;SDS011;47273;49.274;8.708;2022-10-28T07:27:09;28.92;;;26.33;;
46339;SDS011;47273;49.274;8.708;2022-10-28T07:29:35;29.17;;;26.23;;
46339;SDS011;47273;49.274;8.708;2022-10-28T07:32:01;29.38;;;26.38;;
46339;SDS011;47273;49.274;8.708;2022-10-28T07:34:27;29.70;;;26.45;;
46339;SDS011;47273;49.274;8.708;2022-10-28T07:36:53;28.88;;;26.27;;
46339;SDS011;47273;49.274;8.708;2022-10-28T07:39:19;29.35;;;26.25;;
46339;SDS011;47273;49.274;8.708;2022-10-28T07:41:45;29.55;;;26.52;;
46339;SDS011;47273;49.274;8.708;2022-10-28T07:44:11;29.50;;;26.52;;
46339;SDS011;47273;49.274;8.708;2022-10-28T07:46:37;29.38;;;26.42;;
46339;SDS011;47273;49.274;8.708;2022-10-28T07:49:05;28.85;;;26.08;;
46339;SDS011;47273;49.274;8.708;2022-10-28T07:51:30;30.73;;;27.63;;
46339;SDS011;47273;49.274;8.708;2022-10-28T07:53:57;28.77;;;26.15;;
46339;SDS011;47273;49.274;8.708;2022-10-28T07:56:23;29.38;;;26.58;;
46339;SDS011;47273;49.274;8.708;2022-10-28T07:58:49;29.02;;;26.23;;
46339;SDS011;47273;49.274;8.708;2022-10-28T08:01:16;29.30;;;26.30;;
46339;SDS011;47273;49.274;8.708;2022-10-28T08:03:43;28.75;;;25.95;;
46339;SDS011;47273;49.274;8.708;2022-10-28T08:06:13;28.20;;;25.23;;
46339;SDS011;47273;49.274;8.708;2022-10-28T08:08:41;29.20;;;26.42;;
46339;SDS011;47273;49.274;8.708;2022-10-28T08:13:38;29.15;;;26.15;;
46339;SDS011;47273;49.274;8.708;2022-10-28T08:16:04;28.52;;;25.77;;
46339;SDS011;47273;49.274;8.708;2022-10-28T08:18:30;28.80;;;25.92;;
46339;SDS011;47273;49.274;8.708;2022-10-28T08:20:59;28.17;;;25.55;;
46339;SDS011;47273;49.274;8.708;2022-10-28T08:23:26;29.25;;;26.17;;
46339;SDS011;47273;49.274;8.708;2022-10-28T08:25:53;28.88;;;26.08;;
46339;SDS011;47273;49.274;8.708;2022-10-28T08:28:19;29.70;;;26.92;;
46339;SDS011;47273;49.274;8.708;2022-10-28T08:30:44;29.00;;;26.17;;
46339;SDS011;47273;49.274;8.708;2022-10-28T08:33:11;27.95;;;25.17;;
46339;SDS011;47273;49.274;8.708;2022-10-28T08:35:37;29.20;;;26.17;;
46339;SDS011;47273;49.274;8.708;2022-10-28T08:38:03;30.08;;;26.08;;
46339;SDS011;47273;49.274;8.708;2022-10-28T08:40:38;28.98;;;26.17;;
46339;SDS011;47273;49.274;8.708;2022-10-28T08:46:31;31.95;;;28.48;;
46339;SDS011;47273;49.274;8.708;2022-10-28T08:49:14;33.17;;;28.58;;
46339;SDS011;47273;49.274;8.708;2022-10-28T08:51:48;30.23;;;27.35;;
46339;SDS011;47273;49.274;8.708;2022-10-28T08:55:01;29.98;;;26.77;;
46339;SDS011;47273;49.274;8.708;2022-10-28T08:57:23;29.80;;;27.13;;
46339;SDS011;47273;49.274;8.708;2022-10-28T08:59:58;29.65;;;26.90;;
46339;SDS011;47273;49.274;8.708;2022-10-28T09:02:32;29.35;;;26.60;;
46339;SDS011;47273;49.274;8.708;2022-10-28T09:05:22;29.50;;;26.67;;
46339;SDS011;47273;49.274;8.708;2022-10-28T09:07:49;29.27;;;26.38;;
46339;SDS011;47273;49.274;8.708;2022-10-28T09:10:16;28.70;;;25.83;;
46339;SDS011;47273;49.274;8.708;2022-10-28T09:12:53;29.40;;;26.60;;
46339;SDS011;47273;49.274;8.708;2022-10-28T09:15:34;38.50;;;30.35;;
46339;SDS011;47273;49.274;8.708;2022-10-28T09:21:18;45.13;;;31.60;;
46339;SDS011;47273;49.274;8.708;2022-10-28T09:24:06;48.38;;;36.95;;
46339;SDS011;47273;49.274;8.708;2022-10-28T09:29:41;29.52;;;26.48;;
46339;SDS011;47273;49.274;8.708;2022-10-28T09:32:32;28.83;;;26.00;;
46339;SDS011;47273;49.274;8.708;2022-10-28T09:35:40;28.13;;;25.48;;
46339;SDS011;47273;49.274;8.708;2022-10-28T09:40:36;30.20;;;27.10;;
46339;SDS011;47273;49.274;8.708;2022-10-28T09:43:41;30.00;;;25.95;;
46339;SDS011;47273;49.274;8.708;2022-10-28T09:46:12;30.42;;;25.67;;
46339;SDS011;47273;49.274;8.708;2022-10-28T09:48:40;28.52;;;25.52;;
46339;SDS011;47273;49.274;8.708;2022-10-28T09:51:15;28.63;;;26.02;;
46339;SDS011;47273;49.274;8.708;2022-10-28T09:53:49;29.20;;;26.13;;
46339;SDS011;47273;49.274;8.708;2022-10-28T09:56:21;28.73;;;25.92;;
46339;SDS011;47273;49.274;8.708;2022-10-28T09:58:47;31.60;;;26.65;;
46339;SDS011;47273;49.274;8.708;2022-10-28T10:01:16;30.83;;;27.60;;
46339;SDS011;47273;49.274;8.708;2022-10-28T10:03:43;30.90;;;26.83;;
46339;SDS011;47273;49.274;8.708;2022-10-28T10:06:34;31.50;;;27.52;;
46339;SDS011;47273;49.274;8.708;2022-10-28T10:09:02;31.55;;;27.65;;
46339;SDS011;47273;49.274;8.708;2022-10-28T10:13:54;33.50;;;29.88;;
46339;SDS011;47273;49.274;8.708;2022-10-28T10:16:25;34.35;;;30.50;;
46339;SDS011;47273;49.274;8.708;2022-10-28T10:18:58;32.13;;;28.83;;
46339;SDS011;47273;49.274;8.708;2022-10-28T10:21:40;33.20;;;27.33;;
46339;SDS011;47273;49.274;8.708;2022-10-28T10:24:44;30.95;;;26.85;;
46339;SDS011;47273;49.274;8.708;2022-10-28T10:29:34;29.33;;;26.05;;
46339;SDS011;47273;49.274;8.708;2022-10-28T10:32:11;28.95;;;25.58;;
46339;SDS011;47273;49.274;8.708;2022-10-28T10:34:44;29.30;;;26.00;;
46339;SDS011;47273;49.274;8.708;2022-10-28T10:37:34;29.17;;;25.65;;
46339;SDS011;47273;49.274;8.708;2022-10-28T10:42:40;29.20;;;26.30;;
46339;SDS011;47273;49.274;8.708;2022-10-28T10:47:40;28.48;;;25.52;;
46339;SDS011;47273;49.274;8.708;2022-10-28T10:50:24;29.98;;;26.70;;
46339;SDS011;47273;49.274;8.708;2022-10-28T10:52:54;31.88;;;27.30;;
46339;SDS011;47273;49.274;8.708;2022-10-28T10:55:23;30.92;;;27.35;;
46339;SDS011;47273;49.274;8.708;2022-10-28T10:57:59;32.22;;;27.02;;
46339;SDS011;47273;49.274;8.708;2022-10-28T11:00:34;29.48;;;26.60;;
46339;SDS011;47273;49.274;8.708;2022-10-28T11:03:03;31.60;;;26.52;;
46339;SDS011;47273;49.274;8.708;2022-10-28T11:05:30;30.08;;;26.10;;
46339;SDS011;47273;49.274;8.708;2022-10-28T11:07:57;29.75;;;27.05;;
46339;SDS011;47273;49.274;8.708;2022-10-28T11:10:29;29.83;;;27.02;;
46339;SDS011;47273;49.274;8.708;2022-10-28T11:13:02;31.38;;;28.02;;
46339;SDS011;47273;49.274;8.708;2022-10-28T11:15:54;30.88;;;26.92;;
46339;SDS011;47273;49.274;8.708;2022-10-28T11:18:27;29.92;;;27.00;;
46339;SDS011;47273;49.274;8.708;2022-10-28T11:21:12;29.52;;;26.75;;
46339;SDS011;47273;49.274;8.708;2022-10-28T11:24:11;30.55;;;27.75;;
46339;SDS011;47273;49.274;8.708;2022-10-28T11:29:49;31.10;;;28.13;;
46339;SDS011;47273;49.274;8.708;2022-10-28T11:40:53;30.63;;;26.63;;
46339;SDS011;47273;49.274;8.708;2022-10-28T11:54:40;29.95;;;26.75;;
46339;SDS011;47273;49.274;8.708;2022-10-28T11:57:43;31.70;;;25.73;;
46339;SDS011;47273;49.274;8.708;2022-10-28T12:08:36;31.63;;;28.30;;
46339;SDS011;47273;49.274;8.708;2022-10-28T12:11:17;30.90;;;26.67;;
46339;SDS011;47273;49.274;8.708;2022-10-28T12:16:53;33.78;;;29.95;;
46339;SDS011;47273;49.274;8.708;2022-10-28T12:19:34;31.02;;;27.48;;
46339;SDS011;47273;49.274;8.708;2022-10-28T12:25:13;31.70;;;28.75;;
46339;SDS011;47273;49.274;8.708;2022-10-28T12:27:57;29.48;;;26.48;;
46339;SDS011;47273;49.274;8.708;2022-10-28T12:32:59;30.10;;;26.98;;
46339;SDS011;47273;49.274;8.708;2022-10-28T12:35:39;29.50;;;26.60;;
46339;SDS011;47273;49.274;8.708;2022-10-28T12:38:11;34.58;;;27.08;;
46339;SDS011;47273;49.274;8.708;2022-10-28T12:43:34;30.60;;;27.55;;
46339;SDS011;47273;49.274;8.708;2022-10-28T12:46:15;31.48;;;26.65;;
46339;SDS011;47273;49.274;8.708;2022-10-28T12:48:51;29.98;;;26.40;;
46339;SDS011;47273;49.274;8.708;2022-10-28T12:51:26;30.35;;;27.17;;
46339;SDS011;47273;49.274;8.708;2022-10-28T13:03:05;29.70;;;25.90;;
46339;SDS011;47273;49.274;8.708;2022-10-28T13:16:27;29.00;;;25.83;;
46339;SDS011;47273;49.274;8.708;2022-10-28T13:25:13;29.83;;;25.40;;
46339;SDS011;47273;49.274;8.708;2022-10-28T13:27:51;28.63;;;25.27;;
46339;SDS011;47273;49.274;8.708;2022-10-28T13:30:32;29.02;;;25.90;;
46339;SDS011;47273;49.274;8.708;2022-10-28T13:33:12;27.83;;;25.10;;
46339;SDS011;47273;49.274;8.708;2022-10-28T13:35:49;29.27;;;25.17;;
46339;SDS011;47273;49.274;8.708;2022-10-28T13:38:18;28.23;;;25.38;;
46339;SDS011;47273;49.274;8.708;2022-10-28T13:49:24;27.88;;;25.40;;
46339;SDS011;47273;49.274;8.708;2022-10-28T13:51:58;28.10;;;25.40;;
46339;SDS011;47273;49.274;8.708;2022-10-28T13:54:29;29.10;;;26.20;;
46339;SDS011;47273;49.274;8.708;2022-10-28T13:57:04;29.75;;;26.83;;
46339;SDS011;47273;49.274;8.708;2022-10-28T14:00:32;30.00;;;27.05;;
46339;SDS011;47273;49.274;8.708;2022-10-28T14:02:37;28.77;;;25.92;;
46339;SDS011;47273;49.274;8.708;2022-10-28T14:05:11;36.13;;;27.00;;
46339;SDS011;47273;49.274;8.708;2022-10-28T14:10:26;28.75;;;26.17;;
46339;SDS011;47273;49.274;8.708;2022-10-28T14:22:57;33.40;;;27.10;;
46339;SDS011;47273;49.274;8.708;2022-10-28T14:41:41;29.92;;;26.10;;
46339;SDS011;47273;49.274;8.708;2022-10-28T14:52:38;30.00;;;26.98;;
46339;SDS011;47273;49.274;8.708;2022-10-28T14:55:06;30.25;;;27.30;;
46339;SDS011;47273;49.274;8.708;2022-10-28T14:57:43;32.08;;;27.27;;
46339;SDS011;47273;49.274;8.708;2022-10-28T15:00:14;30.20;;;26.92;;
46339;SDS011;47273;49.274;8.708;2022-10-28T15:02:42;29.35;;;26.45;;
46339;SDS011;47273;49.274;8.708;2022-10-28T15:07:39;29.55;;;26.75;;
46339;SDS011;47273;49.274;8.708;2022-10-28T15:10:14;29.20;;;26.27;;
46339;SDS011;47273;49.274;8.708;2022-10-28T15:12:43;30.33;;;25.05;;
46339;SDS011;47273;49.274;8.708;2022-10-28T15:15:23;29.33;;;25.27;;
46339;SDS011;47273;49.274;8.708;2022-10-28T15:17:50;31.35;;;26.50;;
46339;SDS011;47273;49.274;8.708;2022-10-28T15:22:53;28.60;;;25.95;;
46339;SDS011;47273;49.274;8.708;2022-10-28T15:25:36;29.13;;;26.45;;
46339;SDS011;47273;49.274;8.708;2022-10-28T15:28:02;30.30;;;27.70;;
46339;SDS011;47273;49.274;8.708;2022-10-28T15:30:28;29.58;;;26.33;;
46339;SDS011;47273;49.274;8.708;2022-10-28T15:33:15;29.20;;;26.25;;
46339;SDS011;47273;49.274;8.708;2022-10-28T15:35:53;28.77;;;26.00;;
46339;SDS011;47273;49.274;8.708;2022-10-28T15:38:35;29.02;;;26.38;;
46339;SDS011;47273;49.274;8.708;2022-10-28T15:43:53;31.02;;;26.40;;
46339;SDS011;47273;49.274;8.708;2022-10-28T15:46:26;31.67;;;26.92;;
46339;SDS011;47273;49.274;8.708;2022-10-28T15:48:57;29.38;;;26.58;;
46339;SDS011;47273;49.274;8.708;2022-10-28T15:51:25;28.48;;;25.77;;
46339;SDS011;47273;49.274;8.708;2022-10-28T15:53:51;30.40;;;27.33;;
46339;SDS011;47273;49.274;8.708;2022-10-28T15:56:20;29.02;;;26.00;;
46339;SDS011;47273;49.274;8.708;2022-10-28T15:58:59;29.02;;;26.33;;
46339;SDS011;47273;49.274;8.708;2022-10-28T16:03:55;31.27;;;27.90;;
46339;SDS011;47273;49.274;8.708;2022-10-28T16:06:31;40.97;;;28.85;;
46339;SDS011;47273;49.274;8.708;2022-10-28T16:11:29;32.22;;;27.70;;
46339;SDS011;47273;49.274;8.708;2022-10-28T16:13:57;47.60;;;32.33;;
46339;SDS011;47273;49.274;8.708;2022-10-28T16:16:27;33.72;;;30.00;;
46339;SDS011;47273;49.274;8.708;2022-10-28T16:19:07;31.42;;;28.08;;
46339;SDS011;47273;49.274;8.708;2022-10-28T16:21:34;30.92;;;27.65;;
46339;SDS011;47273;49.274;8.708;2022-10-28T16:24:02;31.52;;;27.00;;
46339;SDS011;47273;49.274;8.708;2022-10-28T16:26:29;34.05;;;27.15;;
46339;SDS011;47273;49.274;8.708;2022-10-28T16:28:56;29.92;;;26.85;;
46339;SDS011;47273;49.274;8.708;2022-10-28T16:31:22;29.92;;;26.23;;
46339;SDS011;47273;49.274;8.708;2022-10-28T16:33:51;31.15;;;26.17;;
46339;SDS011;47273;49.274;8.708;2022-10-28T16:36:17;29.10;;;24.55;;
46339;SDS011;47273;49.274;8.708;2022-10-28T16:38:42;34.33;;;25.90;;
46339;SDS011;47273;49.274;8.708;2022-10-28T16:41:18;28.52;;;25.38;;
46339;SDS011;47273;49.274;8.708;2022-10-28T16:46:10;29.27;;;26.27;;
46339;SDS011;47273;49.274;8.708;2022-10-28T16:48:36;29.55;;;24.75;;
46339;SDS011;47273;49.274;8.708;2022-10-28T16:51:03;35.67;;;26.20;;
46339;SDS011;47273;49.274;8.708;2022-10-28T16:53:34;29.13;;;25.50;;
46339;SDS011;47273;49.274;8.708;2022-10-28T16:56:00;31.85;;;26.20;;
46339;SDS011;47273;49.274;8.708;2022-10-28T16:58:26;29.33;;;25.75;;
46339;SDS011;47273;49.274;8.708;2022-10-28T17:00:53;30.77;;;25.98;;
46339;SDS011;47273;49.274;8.708;2022-10-28T17:03:20;33.20;;;26.40;;
46339;SDS011;47273;49.274;8.708;2022-10-28T17:05:46;28.35;;;25.38;;
46339;SDS011;47273;49.274;8.708;2022-10-28T17:08:12;34.33;;;26.73;;
46339;SDS011;47273;49.274;8.708;2022-10-28T17:10:39;31.88;;;26.10;;
46339;SDS011;47273;49.274;8.708;2022-10-28T17:13:06;31.02;;;25.63;;
46339;SDS011;47273;49.274;8.708;2022-10-28T17:15:38;31.67;;;26.13;;
46339;SDS011;47273;49.274;8.708;2022-10-28T17:18:05;34.75;;;26.45;;
46339;SDS011;47273;49.274;8.708;2022-10-28T17:20:31;31.98;;;27.90;;
46339;SDS011;47273;49.274;8.708;2022-10-28T17:22:57;31.25;;;27.90;;
46339;SDS011;47273;49.274;8.708;2022-10-28T17:25:23;35.83;;;27.45;;
46339;SDS011;47273;49.274;8.708;2022-10-28T17:27:50;31.60;;;28.20;;
46339;SDS011;47273;49.274;8.708;2022-10-28T17:30:17;35.72;;;31.58;;
46339;SDS011;47273;49.274;8.708;2022-10-28T17:32:43;40.00;;;31.75;;
46339;SDS011;47273;49.274;8.708;2022-10-28T17:35:12;39.13;;;31.40;;
46339;SDS011;47273;49.274;8.708;2022-10-28T17:37:38;36.75;;;30.52;;
46339;SDS011;47273;49.274;8.708;2022-10-28T17:40:04;37.45;;;29.33;;
46339;SDS011;47273;49.274;8.708;2022-10-28T17:42:30;34.55;;;30.65;;
46339;SDS011;47273;49.274;8.708;2022-10-28T17:44:56;37.30;;;30.10;;
46339;SDS011;47273;49.274;8.708;2022-10-28T17:47:21;37.10;;;31.17;;
46339;SDS011;47273;49.274;8.708;2022-10-28T17:49:47;36.28;;;30.08;;
46339;SDS011;47273;49.274;8.708;2022-10-28T17:52:13;34.72;;;30.33;;
46339;SDS011;47273;49.274;8.708;2022-10-28T17:54:38;37.25;;;29.83;;
46339;SDS011;47273;49.274;8.708;2022-10-28T17:57:04;38.85;;;30.23;;
46339;SDS011;47273;49.274;8.708;2022-10-28T17:59:30;41.00;;;31.77;;
46339;SDS011;47273;49.274;8.708;2022-10-28T18:01:55;52.13;;;39.08;;
46339;SDS011;47273;49.274;8.708;2022-10-28T18:04:21;52.28;;;37.85;;
46339;SDS011;47273;49.274;8.708;2022-10-28T18:06:53;55.20;;;41.35;;
46339;SDS011;47273;49.274;8.708;2022-10-28T18:09:19;57.65;;;40.70;;
46339;SDS011;47273;49.274;8.708;2022-10-28T18:11:46;56.55;;;40.20;;
46339;SDS011;47273;49.274;8.708;2022-10-28T18:14:11;55.28;;;39.88;;
46339;SDS011;47273;49.274;8.708;2022-10-28T18:16:37;48.67;;;37.88;;
46339;SDS011;47273;49.274;8.708;2022-10-28T18:19:03;41.83;;;34.83;;
46339;SDS011;47273;49.274;8.708;2022-10-28T18:21:30;45.85;;;34.35;;
46339;SDS011;47273;49.274;8.708;2022-10-28T18:23:56;38.78;;;31.90;;
46339;SDS011;47273;49.274;8.708;2022-10-28T18:26:30;37.22;;;30.23;;
46339;SDS011;47273;49.274;8.708;2022-10-28T18:29:00;35.88;;;29.60;;
46339;SDS011;47273;49.274;8.708;2022-10-28T18:31:28;33.13;;;28.75;;
46339;SDS011;47273;49.274;8.708;2022-10-28T18:33:55;34.65;;;29.02;;
46339;SDS011;47273;49.274;8.708;2022-10-28T18:36:24;37.15;;;31.20;;
46339;SDS011;47273;49.274;8.708;2022-10-28T18:38:50;34.42;;;29.92;;
46339;SDS011;47273;49.274;8.708;2022-10-28T18:41:17;39.85;;;29.92;;
46339;SDS011;47273;49.274;8.708;2022-10-28T18:43:44;32.55;;;29.15;;
46339;SDS011;47273;49.274;8.708;2022-10-28T18:46:10;31.45;;;28.15;;
46339;SDS011;47273;49.274;8.708;2022-10-28T18:48:37;33.38;;;28.60;;
46339;SDS011;47273;49.274;8.708;2022-10-28T18:51:05;31.70;;;28.33;;
46339;SDS011;47273;49.274;8.708;2022-10-28T18:53:36;35.78;;;29.13;;
46339;SDS011;47273;49.274;8.708;2022-10-28T18:56:14;32.17;;;28.88;;
46339;SDS011;47273;49.274;8.708;2022-10-28T18:58:41;39.58;;;29.33;;
46339;SDS011;47273;49.274;8.708;2022-10-28T19:01:11;38.50;;;28.90;;
46339;SDS011;47273;49.274;8.708;2022-10-28T19:03:38;36.15;;;28.90;;
46339;SDS011;47273;49.274;8.708;2022-10-28T19:06:06;34.25;;;28.08;;
46339;SDS011;47273;49.274;8.708;2022-10-28T19:08:34;31.73;;;28.30;;
46339;SDS011;47273;49.274;8.708;2022-10-28T19:11:07;32.72;;;27.48;;
46339;SDS011;47273;49.274;8.708;2022-10-28T19:13:35;33.60;;;27.95;;
46339;SDS011;47273;49.274;8.708;2022-10-28T19:16:02;32.17;;;26.95;;
46339;SDS011;47273;49.274;8.708;2022-10-28T19:18:29;32.40;;;27.70;;
46339;SDS011;47273;49.274;8.708;2022-10-28T19:21:02;44.15;;;30.63;;
46339;SDS011;47273;49.274;8.708;2022-10-28T19:23:30;65.07;;;39.65;;
46339;SDS011;47273;49.274;8.708;2022-10-28T19:25:56;63.67;;;40.88;;
46339;SDS011;47273;49.274;8.708;2022-10-28T19:28:22;58.20;;;39.83;;
46339;SDS011;47273;49.274;8.708;2022-10-28T19:30:48;54.47;;;38.53;;
46339;SDS011;47273;49.274;8.708;2022-10-28T19:33:14;52.90;;;36.60;;
46339;SDS011;47273;49.274;8.708;2022-10-28T19:35:40;45.25;;;34.20;;
46339;SDS011;47273;49.274;8.708;2022-10-28T19:38:05;43.88;;;31.42;;
46339;SDS011;47273;49.274;8.708;2022-10-28T19:40:31;41.15;;;33.25;;
46339;SDS011;47273;49.274;8.708;2022-10-28T19:42:57;46.88;;;33.15;;
46339;SDS011;47273;49.274;8.708;2022-10-28T19:45:23;45.50;;;32.88;;
46339;SDS011;47273;49.274;8.708;2022-10-28T19:47:48;40.72;;;31.75;;
46339;SDS011;47273;49.274;8.708;2022-10-28T19:50:14;40.58;;;31.42;;
46339;SDS011;47273;49.274;8.708;2022-10-28T19:52:41;37.47;;;31.13;;
46339;SDS011;47273;49.274;8.708;2022-10-28T19:55:07;43.72;;;34.38;;
46339;SDS011;47273;49.274;8.708;2022-10-28T19:57:33;36.58;;;32.67;;
46339;SDS011;47273;49.274;8.708;2022-10-28T19:59:59;44.58;;;32.85;;
46339;SDS011;47273;49.274;8.708;2022-10-28T20:02:25;72.97;;;49.10;;
46339;SDS011;47273;49.274;8.708;2022-10-28T20:04:50;54.20;;;43.05;;
46339;SDS011;47273;49.274;8.708;2022-10-28T20:07:20;45.63;;;38.03;;
46339;SDS011;47273;49.274;8.708;2022-10-28T20:09:47;42.60;;;34.88;;
46339;SDS011;47273;49.274;8.708;2022-10-28T20:12:14;34.85;;;31.15;;
46339;SDS011;47273;49.274;8.708;2022-10-28T20:14:40;33.85;;;29.00;;
46339;SDS011;47273;49.274;8.708;2022-10-28T20:17:06;41.20;;;31.80;;
46339;SDS011;47273;49.274;8.708;2022-10-28T20:19:32;43.30;;;32.42;;
46339;SDS011;47273;49.274;8.708;2022-10-28T20:21:57;37.63;;;33.58;;
46339;SDS011;47273;49.274;8.708;2022-10-28T20:24:23;37.53;;;31.50;;
46339;SDS011;47273;49.274;8.708;2022-10-28T20:26:50;35.60;;;30.67;;
46339;SDS011;47273;49.274;8.708;2022-10-28T20:29:16;43.03;;;32.63;;
